createdAt,value
2019-03-10T00:00:11.337Z,67.28
2019-03-10T00:01:12.605Z,66.90
2019-03-10T00:02:11.372Z,67.15
2019-03-10T00:03:11.382Z,67.19
2019-03-10T00:04:11.361Z,66.90
2019-03-10T00:05:11.371Z,67.76
2019-03-10T00:06:14.356Z,67.28
2019-03-10T00:07:11.383Z,67.53
2019-03-10T00:08:11.362Z,67.19
2019-03-10T00:09:11.398Z,67.38
2019-03-10T00:10:11.377Z,67.34
2019-03-10T00:11:11.387Z,67.28
2019-03-10T00:12:11.444Z,67.44
2019-03-10T00:13:11.376Z,67.34
2019-03-10T00:14:11.506Z,67.63
2019-03-10T00:15:11.388Z,67.63
2019-03-10T00:16:11.396Z,67.44
2019-03-10T00:17:12.173Z,67.44
2019-03-10T00:18:11.414Z,67.15
2019-03-10T00:19:11.418Z,67.25
2019-03-10T00:20:11.433Z,67.91
2019-03-10T00:21:11.432Z,67.72
2019-03-10T00:22:11.979Z,67.44
2019-03-10T00:23:11.448Z,67.63
2019-03-10T00:24:11.433Z,67.53
2019-03-10T00:25:11.429Z,67.63
2019-03-10T00:26:11.447Z,67.25
2019-03-10T00:27:12.525Z,68.19
2019-03-10T00:28:11.459Z,67.53
2019-03-10T00:29:11.439Z,67.72
2019-03-10T00:30:11.464Z,68.10
2019-03-10T00:31:11.465Z,68.10
2019-03-10T00:32:11.461Z,68.19
2019-03-10T00:33:11.890Z,68.19
2019-03-10T00:34:11.479Z,67.82
2019-03-10T00:35:12.537Z,68.29
2019-03-10T00:36:11.497Z,68.29
2019-03-10T00:37:11.476Z,68.39
2019-03-10T00:38:11.569Z,68.29
2019-03-10T00:39:11.511Z,68.48
2019-03-10T00:40:11.488Z,68.19
2019-03-10T00:41:11.486Z,68.01
2019-03-10T00:42:11.485Z,68.29
2019-03-10T00:43:11.503Z,68.48
2019-03-10T00:44:11.589Z,68.19
2019-03-10T00:45:11.514Z,68.39
2019-03-10T00:46:11.509Z,68.10
2019-03-10T00:47:11.515Z,68.10
2019-03-10T00:48:11.592Z,68.19
2019-03-10T00:49:11.582Z,68.39
2019-03-10T00:50:11.544Z,67.91
2019-03-10T00:51:11.559Z,68.39
2019-03-10T00:52:11.545Z,68.29
2019-03-10T00:53:11.572Z,68.29
2019-03-10T00:54:11.532Z,68.48
2019-03-10T00:55:11.592Z,67.53
2019-03-10T00:56:11.542Z,68.01
2019-03-10T00:57:11.600Z,69.05
2019-03-10T00:58:11.546Z,68.39
2019-03-10T00:59:11.565Z,68.19
2019-03-10T01:00:11.605Z,68.39
2019-03-10T01:01:11.563Z,68.29
2019-03-10T01:02:11.574Z,68.10
2019-03-10T01:03:11.619Z,68.19
2019-03-10T01:04:11.573Z,68.19
2019-03-10T01:05:11.597Z,68.19
2019-03-10T01:06:11.574Z,67.53
2019-03-10T01:07:11.613Z,68.39
2019-03-10T01:08:11.634Z,69.24
2019-03-10T01:09:11.585Z,68.86
2019-03-10T01:10:11.636Z,69.05
2019-03-10T01:11:11.597Z,68.48
2019-03-10T01:12:11.600Z,68.86
2019-03-10T01:13:11.660Z,69.34
2019-03-10T01:14:11.679Z,69.05
2019-03-10T01:15:11.611Z,68.96
2019-03-10T01:16:11.610Z,68.96
2019-03-10T01:17:11.693Z,69.91
2019-03-10T01:18:11.638Z,69.91
2019-03-10T01:19:11.634Z,69.43
2019-03-10T01:20:11.647Z,69.62
2019-03-10T01:21:11.634Z,69.71
2019-03-10T01:22:11.667Z,69.81
2019-03-10T01:23:11.644Z,69.05
2019-03-10T01:24:11.681Z,69.15
2019-03-10T01:25:11.648Z,69.53
2019-03-10T01:26:11.645Z,69.62
2019-03-10T01:27:11.710Z,69.62
2019-03-10T01:28:11.657Z,70.29
2019-03-10T01:29:11.672Z,70.38
2019-03-10T01:30:11.659Z,70.25
2019-03-10T01:31:11.687Z,70.29
2019-03-10T01:32:11.683Z,70.19
2019-03-10T01:33:11.701Z,70.19
2019-03-10T01:34:11.718Z,69.81
2019-03-10T01:35:11.709Z,70.19
2019-03-10T01:36:11.730Z,70.38
2019-03-10T01:37:11.689Z,70.38
2019-03-10T01:38:11.712Z,70.19
2019-03-10T01:39:11.693Z,70.10
2019-03-10T01:40:11.691Z,70.10
2019-03-10T01:41:11.705Z,70.00
2019-03-10T01:42:11.789Z,70.38
2019-03-10T01:43:11.780Z,70.29
2019-03-10T01:44:11.712Z,70.29
2019-03-10T01:45:11.727Z,70.86
2019-03-10T01:46:11.735Z,70.35
2019-03-10T01:47:11.733Z,71.01
2019-03-10T01:48:11.753Z,71.20
2019-03-10T01:49:11.722Z,71.04
2019-03-10T01:50:11.775Z,70.35
2019-03-10T01:51:11.750Z,70.00
2019-03-10T01:52:11.737Z,70.54
2019-03-10T01:53:11.736Z,70.57
2019-03-10T01:54:11.845Z,70.73
2019-03-10T01:55:11.757Z,71.39
2019-03-10T01:56:11.783Z,70.67
2019-03-10T01:57:11.767Z,70.86
2019-03-10T01:58:11.763Z,70.76
2019-03-10T01:59:11.772Z,70.86
2019-03-10T02:00:11.831Z,71.04
2019-03-10T02:01:11.797Z,71.81
2019-03-10T02:02:11.780Z,71.23
2019-03-10T02:03:11.786Z,71.23
2019-03-10T02:04:11.792Z,70.57
2019-03-10T02:05:11.812Z,70.48
2019-03-10T02:06:11.829Z,70.86
2019-03-10T02:07:11.780Z,70.67
2019-03-10T02:08:11.788Z,70.19
2019-03-10T02:09:11.802Z,70.38
2019-03-10T02:10:11.798Z,70.48
2019-03-10T02:11:11.841Z,70.10
2019-03-10T02:12:11.806Z,70.57
2019-03-10T02:13:11.836Z,70.38
2019-03-10T02:14:11.832Z,70.38
2019-03-10T02:15:11.832Z,70.38
2019-03-10T02:16:11.842Z,70.57
2019-03-10T02:17:11.853Z,70.10
2019-03-10T02:18:11.833Z,70.48
2019-03-10T02:19:11.821Z,70.57
2019-03-10T02:20:11.856Z,70.67
2019-03-10T02:21:11.884Z,70.67
2019-03-10T02:22:11.844Z,71.52
2019-03-10T02:23:11.867Z,70.57
2019-03-10T02:24:11.860Z,69.91
2019-03-10T02:25:11.853Z,70.29
2019-03-10T02:26:11.918Z,70.38
2019-03-10T02:27:11.874Z,71.04
2019-03-10T02:28:11.876Z,71.14
2019-03-10T02:29:11.886Z,71.33
2019-03-10T02:30:11.893Z,70.76
2019-03-10T02:31:11.868Z,71.04
2019-03-10T02:32:11.961Z,71.04
2019-03-10T02:33:11.917Z,71.33
2019-03-10T02:34:11.937Z,70.95
2019-03-10T02:35:11.957Z,71.04
2019-03-10T02:36:11.885Z,70.95
2019-03-10T02:37:11.980Z,70.86
2019-03-10T02:38:11.931Z,71.14
2019-03-10T02:39:11.904Z,70.95
2019-03-10T02:40:11.921Z,71.01
2019-03-10T02:41:11.977Z,71.33
2019-03-10T02:42:11.911Z,70.86
2019-03-10T02:43:11.973Z,70.86
2019-03-10T02:44:11.989Z,71.58
2019-03-10T02:45:11.955Z,70.92
2019-03-10T02:46:11.931Z,71.52
2019-03-10T02:47:11.953Z,71.30
2019-03-10T02:48:11.932Z,71.48
2019-03-10T02:49:12.037Z,71.48
2019-03-10T02:50:11.971Z,71.58
2019-03-10T02:51:11.949Z,71.30
2019-03-10T02:52:11.962Z,70.82
2019-03-10T02:53:11.986Z,71.67
2019-03-10T02:54:11.984Z,72.25
2019-03-10T02:55:11.995Z,71.86
2019-03-10T02:56:11.976Z,71.01
2019-03-10T02:57:11.960Z,71.39
2019-03-10T02:58:12.009Z,71.86
2019-03-10T02:59:11.986Z,72.25
2019-03-10T03:00:11.983Z,71.96
2019-03-10T03:01:11.993Z,71.77
2019-03-10T03:02:12.005Z,72.53
2019-03-10T03:03:12.022Z,71.67
2019-03-10T03:04:11.986Z,72.06
2019-03-10T03:05:11.989Z,72.25
2019-03-10T03:06:12.006Z,72.15
2019-03-10T03:07:12.016Z,72.34
2019-03-10T03:08:12.014Z,71.86
2019-03-10T03:09:12.069Z,71.96
2019-03-10T03:10:11.999Z,71.86
2019-03-10T03:11:12.065Z,72.34
2019-03-10T03:12:12.026Z,72.15
2019-03-10T03:13:12.024Z,71.67
2019-03-10T03:14:12.083Z,71.23
2019-03-10T03:15:12.029Z,71.52
2019-03-10T03:16:12.024Z,71.14
2019-03-10T03:17:12.027Z,71.48
2019-03-10T03:18:12.093Z,71.67
2019-03-10T03:19:12.053Z,71.58
2019-03-10T03:20:12.096Z,72.44
2019-03-10T03:21:12.092Z,71.58
2019-03-10T03:22:12.053Z,71.58
2019-03-10T03:23:12.040Z,71.01
2019-03-10T03:24:12.105Z,71.58
2019-03-10T03:25:12.073Z,71.58
2019-03-10T03:26:12.065Z,71.67
2019-03-10T03:27:12.141Z,71.58
2019-03-10T03:28:12.081Z,71.58
2019-03-10T03:29:12.084Z,71.11
2019-03-10T03:30:12.082Z,71.86
2019-03-10T03:31:12.118Z,71.48
2019-03-10T03:32:12.085Z,71.04
2019-03-10T03:33:12.102Z,71.67
2019-03-10T03:34:12.124Z,71.67
2019-03-10T03:35:12.112Z,71.58
2019-03-10T03:36:12.160Z,71.58
2019-03-10T03:37:12.109Z,71.77
2019-03-10T03:38:12.178Z,71.77
2019-03-10T03:39:12.160Z,71.20
2019-03-10T03:40:12.103Z,71.62
2019-03-10T03:41:12.153Z,71.23
2019-03-10T03:42:12.117Z,71.52
2019-03-10T03:43:12.203Z,71.04
2019-03-10T03:44:12.128Z,71.04
2019-03-10T03:45:12.153Z,71.71
2019-03-10T03:46:12.124Z,71.52
2019-03-10T03:47:12.158Z,72.28
2019-03-10T03:48:12.164Z,72.25
2019-03-10T03:49:12.187Z,71.77
2019-03-10T03:50:12.204Z,71.67
2019-03-10T03:51:12.143Z,71.58
2019-03-10T03:52:12.206Z,72.06
2019-03-10T03:53:12.262Z,72.15
2019-03-10T03:54:12.162Z,72.00
2019-03-10T03:55:12.192Z,72.25
2019-03-10T03:56:12.156Z,72.06
2019-03-10T03:57:12.163Z,72.63
2019-03-10T03:58:12.164Z,72.44
2019-03-10T03:59:12.235Z,72.63
2019-03-10T04:00:12.174Z,72.25
2019-03-10T04:01:12.184Z,72.53
2019-03-10T04:02:12.199Z,72.53
2019-03-10T04:03:12.228Z,73.10
2019-03-10T04:04:12.188Z,72.63
2019-03-10T04:05:12.248Z,72.15
2019-03-10T04:06:12.190Z,72.25
2019-03-10T04:07:12.216Z,72.72
2019-03-10T04:08:12.207Z,73.29
2019-03-10T04:09:12.250Z,72.91
2019-03-10T04:10:12.211Z,73.86
2019-03-10T04:11:12.256Z,73.38
2019-03-10T04:12:12.213Z,73.86
2019-03-10T04:13:12.216Z,73.00
2019-03-10T04:14:12.231Z,72.91
2019-03-10T04:15:12.280Z,73.48
2019-03-10T04:16:12.236Z,73.96
2019-03-10T04:17:12.247Z,73.29
2019-03-10T04:18:12.247Z,73.57
2019-03-10T04:19:12.266Z,73.48
2019-03-10T04:20:12.241Z,73.48
2019-03-10T04:21:12.303Z,73.96
2019-03-10T04:22:12.309Z,74.05
2019-03-10T04:23:12.270Z,73.96
2019-03-10T04:24:12.303Z,73.96
2019-03-10T04:25:12.249Z,73.57
2019-03-10T04:26:12.262Z,73.67
2019-03-10T04:27:12.265Z,74.24
2019-03-10T04:28:12.315Z,73.76
2019-03-10T04:29:12.281Z,74.33
2019-03-10T04:30:12.345Z,74.52
2019-03-10T04:31:12.287Z,74.43
2019-03-10T04:32:12.277Z,74.62
2019-03-10T04:33:12.300Z,73.86
2019-03-10T04:34:12.358Z,73.96
2019-03-10T04:35:12.299Z,74.33
2019-03-10T04:36:12.295Z,74.33
2019-03-10T04:37:12.360Z,75.00
2019-03-10T04:38:12.332Z,74.62
2019-03-10T04:39:12.312Z,75.00
2019-03-10T04:40:12.311Z,74.71
2019-03-10T04:41:12.363Z,74.71
2019-03-10T04:42:12.316Z,75.19
2019-03-10T04:43:12.336Z,74.33
2019-03-10T04:44:12.325Z,73.90
2019-03-10T04:45:12.340Z,74.37
2019-03-10T04:46:12.331Z,74.08
2019-03-10T04:47:12.371Z,73.99
2019-03-10T04:48:12.365Z,74.66
2019-03-10T04:49:12.340Z,74.08
2019-03-10T04:50:12.377Z,74.47
2019-03-10T04:51:12.385Z,74.27
2019-03-10T04:52:12.370Z,73.99
2019-03-10T04:53:12.350Z,73.71
2019-03-10T04:54:12.405Z,73.80
2019-03-10T04:55:12.405Z,73.71
2019-03-10T04:56:12.376Z,73.99
2019-03-10T04:57:12.379Z,73.42
2019-03-10T04:58:12.422Z,73.14
2019-03-10T04:59:12.363Z,72.75
2019-03-10T05:00:12.427Z,73.33
2019-03-10T05:01:12.389Z,72.95
2019-03-10T05:02:12.415Z,73.23
2019-03-10T05:03:12.391Z,72.70
2019-03-10T05:04:12.416Z,73.18
2019-03-10T05:05:12.402Z,72.60
2019-03-10T05:06:12.404Z,72.99
2019-03-10T05:07:12.404Z,72.79
2019-03-10T05:08:12.399Z,72.60
2019-03-10T05:09:12.426Z,72.99
2019-03-10T05:10:12.441Z,72.79
2019-03-10T05:11:12.415Z,73.36
2019-03-10T05:12:12.431Z,72.60
2019-03-10T05:13:12.420Z,72.41
2019-03-10T05:14:12.485Z,72.60
2019-03-10T05:15:12.452Z,72.99
2019-03-10T05:16:12.513Z,72.51
2019-03-10T05:17:12.438Z,72.32
2019-03-10T05:18:12.441Z,72.70
2019-03-10T05:19:12.511Z,72.70
2019-03-10T05:20:12.463Z,72.70
2019-03-10T05:21:12.445Z,72.51
2019-03-10T05:22:12.471Z,72.60
2019-03-10T05:23:12.484Z,72.41
2019-03-10T05:24:12.484Z,72.41
2019-03-10T05:25:12.517Z,72.51
2019-03-10T05:26:12.543Z,72.32
2019-03-10T05:27:12.471Z,72.13
2019-03-10T05:28:12.536Z,71.84
2019-03-10T05:29:12.546Z,72.13
2019-03-10T05:30:12.551Z,72.41
2019-03-10T05:31:12.494Z,72.32
2019-03-10T05:32:12.501Z,72.22
2019-03-10T05:33:12.506Z,72.41
2019-03-10T05:34:12.503Z,72.32
2019-03-10T05:35:12.546Z,72.51
2019-03-10T05:36:12.511Z,72.32
2019-03-10T05:37:12.521Z,72.22
2019-03-10T05:38:12.516Z,72.60
2019-03-10T05:39:12.517Z,72.13
2019-03-10T05:40:12.549Z,72.70
2019-03-10T05:41:12.603Z,72.99
2019-03-10T05:42:12.597Z,73.27
2019-03-10T05:43:12.538Z,72.41
2019-03-10T05:44:12.571Z,73.18
2019-03-10T05:45:12.554Z,72.70
2019-03-10T05:46:12.564Z,72.89
2019-03-10T05:47:12.572Z,73.08
2019-03-10T05:48:12.621Z,72.89
2019-03-10T05:49:12.566Z,73.08
2019-03-10T05:50:12.563Z,72.79
2019-03-10T05:51:12.644Z,72.99
2019-03-10T05:52:12.568Z,72.79
2019-03-10T05:53:12.569Z,73.08
2019-03-10T05:54:12.865Z,73.74
2019-03-10T05:55:12.583Z,72.89
2019-03-10T05:56:12.585Z,73.18
2019-03-10T05:57:12.631Z,73.18
2019-03-10T05:58:12.623Z,73.18
2019-03-10T05:59:12.604Z,73.08
2019-03-10T06:00:12.636Z,72.89
2019-03-10T06:01:12.595Z,73.27
2019-03-10T06:02:12.599Z,72.99
2019-03-10T06:03:12.660Z,72.99
2019-03-10T06:04:12.694Z,72.79
2019-03-10T06:05:12.651Z,73.08
2019-03-10T06:06:12.636Z,73.46
2019-03-10T06:07:12.630Z,72.79
2019-03-10T06:08:12.653Z,72.99
2019-03-10T06:09:12.645Z,72.60
2019-03-10T06:10:12.676Z,72.51
2019-03-10T06:11:12.664Z,72.99
2019-03-10T06:12:12.648Z,72.64
2019-03-10T06:13:12.758Z,72.26
2019-03-10T06:14:12.683Z,72.79
2019-03-10T06:15:12.668Z,72.32
2019-03-10T06:16:12.897Z,72.51
2019-03-10T06:17:12.663Z,71.75
2019-03-10T06:18:13.817Z,72.41
2019-03-10T06:19:12.692Z,72.70
2019-03-10T06:20:12.687Z,72.60
2019-03-10T06:21:12.717Z,72.60
2019-03-10T06:22:12.910Z,72.13
2019-03-10T06:23:12.701Z,72.41
2019-03-10T06:24:12.730Z,72.22
2019-03-10T06:25:12.709Z,72.70
2019-03-10T06:26:12.747Z,72.99
2019-03-10T06:27:12.742Z,72.22
2019-03-10T06:28:12.719Z,72.70
2019-03-10T06:29:12.714Z,72.60
2019-03-10T06:30:12.749Z,72.51
2019-03-10T06:31:12.727Z,72.89
2019-03-10T06:32:12.737Z,73.08
2019-03-10T06:33:12.791Z,72.70
2019-03-10T06:34:12.772Z,72.99
2019-03-10T06:35:12.731Z,72.70
2019-03-10T06:36:12.757Z,72.70
2019-03-10T06:37:12.759Z,72.60
2019-03-10T06:38:12.778Z,73.36
2019-03-10T06:39:12.783Z,72.79
2019-03-10T06:40:12.772Z,72.70
2019-03-10T06:41:12.774Z,72.89
2019-03-10T06:42:12.752Z,72.70
2019-03-10T06:43:12.834Z,73.18
2019-03-10T06:44:12.850Z,72.32
2019-03-10T06:45:12.829Z,73.18
2019-03-10T06:46:12.825Z,72.70
2019-03-10T06:47:12.790Z,72.51
2019-03-10T06:48:12.786Z,72.70
2019-03-10T06:49:12.807Z,72.51
2019-03-10T06:50:12.836Z,73.02
2019-03-10T06:51:12.843Z,72.35
2019-03-10T06:52:12.848Z,72.16
2019-03-10T06:53:12.818Z,72.45
2019-03-10T06:54:12.859Z,72.07
2019-03-10T06:55:12.876Z,72.64
2019-03-10T06:56:12.827Z,72.35
2019-03-10T06:57:12.829Z,72.07
2019-03-10T06:58:12.843Z,71.69
2019-03-10T06:59:12.853Z,71.22
2019-03-10T07:00:12.900Z,71.34
2019-03-10T07:01:12.843Z,71.34
2019-03-10T07:02:12.872Z,70.97
2019-03-10T07:03:12.879Z,70.97
2019-03-10T07:04:12.855Z,70.77
2019-03-10T07:05:12.902Z,70.58
2019-03-10T07:06:12.899Z,70.77
2019-03-10T07:07:12.863Z,70.01
2019-03-10T07:08:12.864Z,69.63
2019-03-10T07:09:12.870Z,69.82
2019-03-10T07:10:12.921Z,69.35
2019-03-10T07:11:12.891Z,69.35
2019-03-10T07:12:12.886Z,70.30
2019-03-10T07:13:12.897Z,69.92
2019-03-10T07:14:12.907Z,69.25
2019-03-10T07:15:12.941Z,69.25
2019-03-10T07:16:12.907Z,69.29
2019-03-10T07:17:12.899Z,69.19
2019-03-10T07:18:12.962Z,68.52
2019-03-10T07:19:12.939Z,68.52
2019-03-10T07:20:12.931Z,68.52
2019-03-10T07:21:12.945Z,68.43
2019-03-10T07:22:16.641Z,68.15
2019-03-10T07:23:12.945Z,68.33
2019-03-10T07:24:12.974Z,68.52
2019-03-10T07:25:12.959Z,67.57
2019-03-10T07:26:13.170Z,68.15
2019-03-10T07:27:12.961Z,68.27
2019-03-10T07:28:13.017Z,67.95
2019-03-10T07:29:13.318Z,66.94
2019-03-10T07:30:12.968Z,67.13
2019-03-10T07:31:12.972Z,67.32
2019-03-10T07:32:12.985Z,66.27
2019-03-10T07:33:13.006Z,67.41
2019-03-10T07:34:12.989Z,67.41
2019-03-10T07:35:13.048Z,66.56
2019-03-10T07:36:13.006Z,66.75
2019-03-10T07:37:13.094Z,66.27
2019-03-10T07:38:13.078Z,66.37
2019-03-10T07:39:13.897Z,66.27
2019-03-10T07:40:13.051Z,66.46
2019-03-10T07:41:13.116Z,65.89
2019-03-10T07:42:13.060Z,65.80
2019-03-10T07:43:13.072Z,66.08
2019-03-10T07:44:13.046Z,65.89
2019-03-10T07:45:13.073Z,65.70
2019-03-10T07:46:13.115Z,65.99
2019-03-10T07:47:13.117Z,66.08
2019-03-10T07:48:13.137Z,65.51
2019-03-10T07:49:13.063Z,65.45
2019-03-10T07:50:13.081Z,65.23
2019-03-10T07:51:13.106Z,64.78
2019-03-10T07:52:20.119Z,64.59
2019-03-10T07:53:13.124Z,64.59
2019-03-10T07:54:13.087Z,64.50
2019-03-10T07:55:13.105Z,64.69
2019-03-10T07:56:13.156Z,64.21
2019-03-10T07:57:13.110Z,63.83
2019-03-10T07:58:13.216Z,63.64
2019-03-10T07:59:13.207Z,63.67
2019-03-10T08:00:13.138Z,63.29
2019-03-10T08:01:13.152Z,63.86
2019-03-10T08:02:13.206Z,63.29
2019-03-10T08:03:13.200Z,63.10
2019-03-10T08:04:13.161Z,63.29
2019-03-10T08:05:13.161Z,62.81
2019-03-10T08:06:13.170Z,63.00
2019-03-10T08:07:13.174Z,62.62
2019-03-10T08:08:13.187Z,62.91
2019-03-10T08:09:13.280Z,62.62
2019-03-10T08:10:13.196Z,62.24
2019-03-10T08:11:13.179Z,62.62
2019-03-10T08:12:13.195Z,62.34
2019-03-10T08:13:13.217Z,62.62
2019-03-10T08:14:13.304Z,62.24
2019-03-10T08:15:13.222Z,62.81
2019-03-10T08:16:13.219Z,62.81
2019-03-10T08:17:13.230Z,62.72
2019-03-10T08:18:13.236Z,62.72
2019-03-10T08:19:13.235Z,62.62
2019-03-10T08:20:13.314Z,62.34
2019-03-10T08:21:13.264Z,61.99
2019-03-10T08:22:13.258Z,61.96
2019-03-10T08:23:13.262Z,61.38
2019-03-10T08:24:13.251Z,61.51
2019-03-10T08:25:13.289Z,61.51
2019-03-10T08:26:13.315Z,61.70
2019-03-10T08:27:13.272Z,61.80
2019-03-10T08:28:13.281Z,61.51
2019-03-10T08:29:13.300Z,61.32
2019-03-10T08:30:13.346Z,61.22
2019-03-10T08:31:13.301Z,61.22
2019-03-10T08:32:13.352Z,60.84
2019-03-10T08:33:13.322Z,60.84
2019-03-10T08:34:13.323Z,60.27
2019-03-10T08:35:13.328Z,59.89
2019-03-10T08:36:13.910Z,60.17
2019-03-10T08:37:13.383Z,60.27
2019-03-10T08:38:13.405Z,59.92
2019-03-10T08:39:13.364Z,59.60
2019-03-10T08:40:13.416Z,59.53
2019-03-10T08:41:13.412Z,59.44
2019-03-10T08:42:20.165Z,59.34
2019-03-10T08:43:13.373Z,58.87
2019-03-10T08:44:13.392Z,58.58
2019-03-10T08:45:13.459Z,59.25
2019-03-10T08:46:13.394Z,59.16
2019-03-10T08:47:13.415Z,58.29
2019-03-10T08:48:13.426Z,58.29
2019-03-10T08:49:13.417Z,58.01
2019-03-10T08:50:13.427Z,58.17
2019-03-10T08:51:13.464Z,58.17
2019-03-10T08:52:13.433Z,58.07
2019-03-10T08:53:13.427Z,58.48
2019-03-10T08:54:13.473Z,58.58
2019-03-10T08:55:13.475Z,58.39
2019-03-10T08:56:13.462Z,59.16
2019-03-10T08:57:13.526Z,59.06
2019-03-10T08:58:13.463Z,58.87
2019-03-10T08:59:13.461Z,59.16
2019-03-10T09:00:13.475Z,58.11
2019-03-10T09:01:13.473Z,58.46
2019-03-10T09:02:13.558Z,58.17
2019-03-10T09:03:13.494Z,57.98
2019-03-10T09:04:13.527Z,58.77
2019-03-10T09:05:13.508Z,59.34
2019-03-10T09:06:13.615Z,59.16
2019-03-10T09:07:13.565Z,58.01
2019-03-10T09:08:13.505Z,58.48
2019-03-10T09:09:13.560Z,57.43
2019-03-10T09:10:13.823Z,57.34
2019-03-10T09:11:13.548Z,57.72
2019-03-10T09:12:13.561Z,57.24
2019-03-10T09:13:13.633Z,57.53
2019-03-10T09:14:13.651Z,57.15
2019-03-10T09:15:13.589Z,56.48
2019-03-10T09:16:13.571Z,57.15
2019-03-10T09:17:13.600Z,56.29
2019-03-10T09:18:13.580Z,56.10
2019-03-10T09:19:13.586Z,56.01
2019-03-10T09:20:13.656Z,56.58
2019-03-10T09:21:13.636Z,56.29
2019-03-10T09:22:13.604Z,56.29
2019-03-10T09:23:13.767Z,56.48
2019-03-10T09:24:13.617Z,56.20
2019-03-10T09:25:13.696Z,55.82
2019-03-10T09:26:13.681Z,55.34
2019-03-10T09:27:13.697Z,55.46
2019-03-10T09:28:13.649Z,55.94
2019-03-10T09:29:13.663Z,55.36
2019-03-10T09:30:14.033Z,54.89
2019-03-10T09:31:13.980Z,55.08
2019-03-10T09:32:13.678Z,55.27
2019-03-10T09:33:13.783Z,54.70
2019-03-10T09:34:13.700Z,54.60
2019-03-10T09:35:13.712Z,54.60
2019-03-10T09:36:13.820Z,54.41
2019-03-10T09:37:14.145Z,54.60
2019-03-10T09:38:13.725Z,54.41
2019-03-10T09:39:13.744Z,54.13
2019-03-10T09:40:13.748Z,54.41
2019-03-10T09:41:13.768Z,54.03
2019-03-10T09:42:13.758Z,54.60
2019-03-10T09:43:13.750Z,54.22
2019-03-10T09:44:13.776Z,53.65
2019-03-10T09:45:13.793Z,54.03
2019-03-10T09:46:13.785Z,54.32
2019-03-10T09:47:13.834Z,53.84
2019-03-10T09:48:13.785Z,54.13
2019-03-10T09:49:13.810Z,54.22
2019-03-10T09:50:13.813Z,53.93
2019-03-10T09:51:13.803Z,53.74
2019-03-10T09:52:13.880Z,53.65
2019-03-10T09:53:13.873Z,53.08
2019-03-10T09:54:13.846Z,53.36
2019-03-10T09:55:13.855Z,52.88
2019-03-10T09:56:13.864Z,52.98
2019-03-10T09:57:13.928Z,52.88
2019-03-10T09:58:13.882Z,52.69
2019-03-10T09:59:13.977Z,52.12
2019-03-10T10:00:13.924Z,52.24
2019-03-10T10:01:13.864Z,52.62
2019-03-10T10:02:13.880Z,52.43
2019-03-10T10:03:13.971Z,51.86
2019-03-10T10:04:13.897Z,51.86
2019-03-10T10:05:13.884Z,52.05
2019-03-10T10:06:13.895Z,52.43
2019-03-10T10:07:13.921Z,52.53
2019-03-10T10:08:13.927Z,52.34
2019-03-10T10:09:13.942Z,52.43
2019-03-10T10:10:13.946Z,52.34
2019-03-10T10:11:13.955Z,52.34
2019-03-10T10:12:14.011Z,52.43
2019-03-10T10:13:13.971Z,52.46
2019-03-10T10:14:13.987Z,52.36
2019-03-10T10:15:13.993Z,52.08
2019-03-10T10:16:13.984Z,51.19
2019-03-10T10:17:14.036Z,52.36
2019-03-10T10:18:14.003Z,52.26
2019-03-10T10:19:13.998Z,52.08
2019-03-10T10:20:14.011Z,51.70
2019-03-10T10:21:14.072Z,51.60
2019-03-10T10:22:14.115Z,51.21
2019-03-10T10:23:14.037Z,51.60
2019-03-10T10:24:14.049Z,50.74
2019-03-10T10:25:14.072Z,51.34
2019-03-10T10:26:14.069Z,50.95
2019-03-10T10:27:14.063Z,51.21
2019-03-10T10:28:14.233Z,50.95
2019-03-10T10:29:14.102Z,51.43
2019-03-10T10:30:14.088Z,51.05
2019-03-10T10:31:14.143Z,51.34
2019-03-10T10:32:14.110Z,51.24
2019-03-10T10:33:14.113Z,51.05
2019-03-10T10:34:14.110Z,51.05
2019-03-10T10:35:14.118Z,51.24
2019-03-10T10:36:14.123Z,51.15
2019-03-10T10:37:14.144Z,50.86
2019-03-10T10:38:18.448Z,50.48
2019-03-10T10:39:14.213Z,50.67
2019-03-10T10:40:14.164Z,50.76
2019-03-10T10:41:14.164Z,50.86
2019-03-10T10:42:14.210Z,50.86
2019-03-10T10:43:14.188Z,51.15
2019-03-10T10:44:14.239Z,50.67
2019-03-10T10:45:14.211Z,50.38
2019-03-10T10:46:14.220Z,50.57
2019-03-10T10:47:14.210Z,50.76
2019-03-10T10:48:14.297Z,50.67
2019-03-10T10:49:14.241Z,51.15
2019-03-10T10:50:14.246Z,50.95
2019-03-10T10:51:14.264Z,51.34
2019-03-10T10:52:14.290Z,50.76
2019-03-10T10:53:14.475Z,51.15
2019-03-10T10:54:14.283Z,50.76
2019-03-10T10:55:14.329Z,51.24
2019-03-10T10:56:14.294Z,51.05
2019-03-10T10:57:14.291Z,50.86
2019-03-10T10:58:14.333Z,51.24
2019-03-10T10:59:14.293Z,51.43
2019-03-10T11:00:14.298Z,51.24
2019-03-10T11:01:14.294Z,51.50
2019-03-10T11:02:14.367Z,52.08
2019-03-10T11:03:14.307Z,51.89
2019-03-10T11:04:14.314Z,52.46
2019-03-10T11:05:14.397Z,52.65
2019-03-10T11:06:14.349Z,52.94
2019-03-10T11:07:14.335Z,52.75
2019-03-10T11:08:14.356Z,53.41
2019-03-10T11:09:14.372Z,54.08
2019-03-10T11:10:14.390Z,54.66
2019-03-10T11:11:14.447Z,54.66
2019-03-10T11:12:14.382Z,54.37
2019-03-10T11:13:14.404Z,55.42
2019-03-10T11:14:14.398Z,55.77
2019-03-10T11:15:14.493Z,55.58
2019-03-10T11:16:14.414Z,55.77
2019-03-10T11:17:14.491Z,56.06
2019-03-10T11:18:15.387Z,56.45
2019-03-10T11:19:14.493Z,56.45
2019-03-10T11:20:14.522Z,56.73
2019-03-10T11:21:14.670Z,56.54
2019-03-10T11:22:14.459Z,56.73
2019-03-10T11:23:14.558Z,56.35
2019-03-10T11:24:14.456Z,56.45
2019-03-10T11:25:14.482Z,57.21
2019-03-10T11:26:14.485Z,56.63
2019-03-10T11:27:14.494Z,57.50
2019-03-10T11:28:14.556Z,57.02
2019-03-10T11:29:14.515Z,56.63
2019-03-10T11:30:14.525Z,57.59
2019-03-10T11:31:14.512Z,57.50
2019-03-10T11:32:14.532Z,58.36
2019-03-10T11:33:14.533Z,56.63
2019-03-10T11:34:14.549Z,56.35
2019-03-10T11:35:14.633Z,56.35
2019-03-10T11:36:14.572Z,56.06
2019-03-10T11:37:14.527Z,55.96
2019-03-10T11:38:14.605Z,56.45
2019-03-10T11:39:14.559Z,56.92
2019-03-10T11:40:14.567Z,57.59
2019-03-10T11:41:14.613Z,57.50
2019-03-10T11:42:14.620Z,56.92
2019-03-10T11:43:14.564Z,57.50
2019-03-10T11:44:14.626Z,57.59
2019-03-10T11:45:14.641Z,58.33
2019-03-10T11:46:14.611Z,58.33
2019-03-10T11:47:14.607Z,58.04
2019-03-10T11:48:14.693Z,58.04
2019-03-10T11:49:14.690Z,58.14
2019-03-10T11:50:15.231Z,58.70
2019-03-10T11:51:14.618Z,59.66
2019-03-10T11:52:14.710Z,59.28
2019-03-10T11:53:19.102Z,59.38
2019-03-10T11:54:14.694Z,59.09
2019-03-10T11:55:14.825Z,59.09
2019-03-10T11:56:14.663Z,59.76
2019-03-10T11:57:14.698Z,60.90
2019-03-10T11:58:14.687Z,61.10
2019-03-10T11:59:14.718Z,61.29
2019-03-10T12:00:14.678Z,61.95
2019-03-10T12:01:14.739Z,61.86
2019-03-10T12:02:16.379Z,61.38
2019-03-10T12:03:14.702Z,61.38
2019-03-10T12:04:14.719Z,61.47
2019-03-10T12:05:14.722Z,61.86
2019-03-10T12:06:14.791Z,61.57
2019-03-10T12:07:14.777Z,61.29
2019-03-10T12:08:14.736Z,61.47
2019-03-10T12:09:14.743Z,61.10
2019-03-10T12:10:14.757Z,59.76
2019-03-10T12:11:14.764Z,59.95
2019-03-10T12:12:14.807Z,59.66
2019-03-10T12:13:14.759Z,58.99
2019-03-10T12:14:14.774Z,58.23
2019-03-10T12:15:14.791Z,58.14
2019-03-10T12:16:14.792Z,58.42
2019-03-10T12:17:14.794Z,58.04
2019-03-10T12:18:14.896Z,58.42
2019-03-10T12:19:14.799Z,58.51
2019-03-10T12:20:14.819Z,59.85
2019-03-10T12:21:14.830Z,59.56
2019-03-10T12:22:14.860Z,59.19
2019-03-10T12:23:14.840Z,59.38
2019-03-10T12:24:14.850Z,60.27
2019-03-10T12:25:14.855Z,59.78
2019-03-10T12:26:14.856Z,58.93
2019-03-10T12:27:14.868Z,59.98
2019-03-10T12:28:14.879Z,59.98
2019-03-10T12:29:14.886Z,59.22
2019-03-10T12:30:14.949Z,57.97
2019-03-10T12:31:14.894Z,58.26
2019-03-10T12:32:14.894Z,56.92
2019-03-10T12:33:14.909Z,58.07
2019-03-10T12:34:14.924Z,57.40
2019-03-10T12:35:14.917Z,58.36
2019-03-10T12:36:15.010Z,59.02
2019-03-10T12:37:14.927Z,60.36
2019-03-10T12:38:14.946Z,60.64
2019-03-10T12:39:17.022Z,60.17
2019-03-10T12:40:14.957Z,59.53
2019-03-10T12:41:14.970Z,59.78
2019-03-10T12:42:14.967Z,59.78
2019-03-10T12:43:14.991Z,60.49
2019-03-10T12:44:14.979Z,59.91
2019-03-10T12:45:15.010Z,60.68
2019-03-10T12:46:14.991Z,59.34
2019-03-10T12:47:15.020Z,58.48
2019-03-10T12:48:14.997Z,59.05
2019-03-10T12:49:15.007Z,59.24
2019-03-10T12:50:15.066Z,59.24
2019-03-10T12:51:15.033Z,58.54
2019-03-10T12:52:15.031Z,58.19